createdAt,value
2023-04-06T00:00:08.988Z,7.57
2023-04-06T00:02:37.729Z,7.54
2023-04-06T00:05:06.201Z,7.54
2023-04-06T00:07:35.437Z,7.41
2023-04-06T00:10:03.768Z,7.51
2023-04-06T00:12:33.816Z,7.51
2023-04-06T00:15:02.599Z,7.51
2023-04-06T00:17:30.807Z,7.44
2023-04-06T00:19:58.801Z,7.46
2023-04-06T00:22:26.826Z,7.47
2023-04-06T00:24:54.848Z,7.47
2023-04-06T00:27:22.959Z,7.47
2023-04-06T00:29:52.816Z,7.38
2023-04-06T00:32:21.014Z,7.41
2023-04-06T00:34:49.444Z,7.39
2023-04-06T00:37:17.658Z,7.35
2023-04-06T00:39:45.679Z,7.35
2023-04-06T00:42:15.700Z,7.36
2023-04-06T00:44:44.172Z,7.34
2023-04-06T00:47:13.875Z,7.38
2023-04-06T00:49:42.190Z,7.42
2023-04-06T00:52:10.748Z,7.38
2023-04-06T00:54:39.261Z,7.32
2023-04-06T00:57:07.765Z,7.34
2023-04-06T00:59:36.163Z,7.29
2023-04-06T01:02:06.763Z,7.25
2023-04-06T01:04:42.750Z,7.24
2023-04-06T01:07:16.877Z,7.30
2023-04-06T01:09:56.900Z,7.22
2023-04-06T01:12:28.306Z,7.29
2023-04-06T01:14:56.429Z,7.28
2023-04-06T01:17:24.868Z,7.28
2023-04-06T01:19:56.157Z,7.29
2023-04-06T01:22:31.646Z,7.32
2023-04-06T01:25:02.654Z,7.30
2023-04-06T01:27:53.713Z,7.32
2023-04-06T01:30:45.945Z,7.31
2023-04-06T01:33:27.216Z,7.32
2023-04-06T01:36:03.254Z,7.32
2023-04-06T01:38:33.165Z,7.33
2023-04-06T01:41:01.674Z,7.34
2023-04-06T01:43:35.602Z,7.36
2023-04-06T01:46:07.167Z,7.34
2023-04-06T01:48:38.334Z,7.32
2023-04-06T01:51:17.818Z,7.34
2023-04-06T01:53:56.285Z,7.30
2023-04-06T01:56:31.064Z,7.35
2023-04-06T01:59:06.924Z,7.36
2023-04-06T02:01:40.649Z,7.37
2023-04-06T02:04:08.877Z,7.36
2023-04-06T02:06:37.316Z,7.35
2023-04-06T02:09:09.293Z,7.36
2023-04-06T02:11:37.869Z,7.34
2023-04-06T02:14:06.157Z,7.29
2023-04-06T02:16:39.476Z,7.30
2023-04-06T02:19:07.811Z,7.30
2023-04-06T02:21:36.100Z,7.29
2023-04-06T02:24:04.553Z,7.28
2023-04-06T02:26:34.148Z,7.24
2023-04-06T02:29:03.174Z,7.28
2023-04-06T02:31:31.380Z,7.26
2023-04-06T02:33:59.856Z,7.26
2023-04-06T02:36:28.792Z,7.27
2023-04-06T02:38:56.809Z,7.27
2023-04-06T02:41:25.005Z,7.19
2023-04-06T02:43:55.500Z,7.16
2023-04-06T02:46:36.987Z,7.15
2023-04-06T02:49:06.091Z,7.16
2023-04-06T02:51:36.520Z,7.14
2023-04-06T02:54:16.733Z,7.14
2023-04-06T02:56:45.146Z,7.14
2023-04-06T02:59:16.070Z,7.13
2023-04-06T03:01:51.825Z,7.15
2023-04-06T03:04:20.214Z,7.14
2023-04-06T03:06:49.162Z,7.05
2023-04-06T03:09:26.645Z,7.09
2023-04-06T03:11:54.845Z,7.04
2023-04-06T03:14:25.598Z,7.07
2023-04-06T03:16:53.828Z,7.06
2023-04-06T03:19:24.006Z,7.09
2023-04-06T03:21:52.930Z,7.09
2023-04-06T03:24:22.382Z,7.09
2023-04-06T03:26:50.910Z,7.03
2023-04-06T03:29:19.622Z,7.04
2023-04-06T03:31:49.784Z,7.03
2023-04-06T03:34:36.052Z,7.00
2023-04-06T03:37:10.403Z,7.01
2023-04-06T03:39:44.478Z,6.99
2023-04-06T03:42:17.722Z,6.96
2023-04-06T03:44:55.640Z,6.98
2023-04-06T03:47:25.635Z,7.00
2023-04-06T03:49:58.129Z,6.97
2023-04-06T03:52:27.313Z,6.95
2023-04-06T03:54:55.558Z,6.97
2023-04-06T03:57:23.686Z,6.95
2023-04-06T03:59:51.881Z,6.89
2023-04-06T04:02:20.257Z,6.92
2023-04-06T04:04:50.144Z,6.88
2023-04-06T04:07:18.353Z,6.91
2023-04-06T04:09:46.410Z,6.91
2023-04-06T04:12:15.770Z,6.89
2023-04-06T04:14:44.955Z,6.89
2023-04-06T04:17:13.117Z,6.88
2023-04-06T04:19:41.449Z,6.89
2023-04-06T04:22:11.337Z,6.88
2023-04-06T04:24:42.136Z,6.86
2023-04-06T04:27:10.655Z,6.82
2023-04-06T04:29:39.911Z,6.84
2023-04-06T04:32:10.822Z,6.87
2023-04-06T04:34:41.288Z,6.88
2023-04-06T04:37:14.471Z,6.87
2023-04-06T04:39:51.275Z,6.82
2023-04-06T04:42:19.627Z,6.85
2023-04-06T04:44:52.322Z,6.86
2023-04-06T04:47:32.844Z,6.87
2023-04-06T04:50:01.598Z,6.82
2023-04-06T04:52:31.238Z,6.86
2023-04-06T04:55:10.808Z,6.89
2023-04-06T04:57:39.255Z,6.85
2023-04-06T05:00:08.200Z,6.84
2023-04-06T05:02:38.598Z,6.84
2023-04-06T05:05:28.185Z,6.75
2023-04-06T05:07:58.690Z,6.76
2023-04-06T05:10:42.527Z,6.75
2023-04-06T05:13:10.930Z,6.70
2023-04-06T05:15:41.375Z,6.77
2023-04-06T05:18:22.688Z,6.71
2023-04-06T05:20:52.776Z,6.63
2023-04-06T05:23:26.610Z,6.70
2023-04-06T05:25:54.872Z,6.67
2023-04-06T05:28:24.771Z,6.64
2023-04-06T05:30:53.087Z,6.67
2023-04-06T05:33:21.336Z,6.63
2023-04-06T05:36:13.133Z,6.56
2023-04-06T05:38:47.223Z,6.64
2023-04-06T05:41:25.816Z,6.65
2023-04-06T05:43:54.026Z,6.58
2023-04-06T05:46:22.317Z,6.63
2023-04-06T05:48:50.646Z,6.60
2023-04-06T05:51:20.655Z,6.54
2023-04-06T05:53:52.443Z,6.51
2023-04-06T05:56:20.655Z,6.47
2023-04-06T05:58:50.924Z,6.36
2023-04-06T06:01:25.451Z,6.38
2023-04-06T06:03:53.588Z,6.35
2023-04-06T06:06:22.066Z,6.31
2023-04-06T06:09:14.878Z,6.28
2023-04-06T06:11:50.967Z,6.25
2023-04-06T06:14:23.272Z,6.19
2023-04-06T06:16:51.663Z,6.19
2023-04-06T06:19:20.935Z,6.14
2023-04-06T06:21:49.729Z,6.18
2023-04-06T06:24:19.414Z,6.15
2023-04-06T06:26:49.875Z,6.13
2023-04-06T06:29:19.868Z,6.09
2023-04-06T06:31:47.992Z,6.01
2023-04-06T06:34:16.905Z,5.97
2023-04-06T06:36:47.589Z,5.95
2023-04-06T06:39:17.876Z,5.91
2023-04-06T06:41:47.580Z,5.85
2023-04-06T06:44:15.779Z,5.81
2023-04-06T06:46:43.867Z,5.84
2023-04-06T06:49:13.382Z,5.85
2023-04-06T06:51:41.686Z,5.93
2023-04-06T06:54:09.924Z,5.98
2023-04-06T06:56:39.242Z,6.02
2023-04-06T06:59:09.670Z,6.21
2023-04-06T07:01:39.032Z,6.30
2023-04-06T07:04:08.917Z,6.32
2023-04-06T07:06:37.756Z,6.48
2023-04-06T07:09:06.234Z,6.74
2023-04-06T07:11:34.459Z,6.84
2023-04-06T07:14:02.753Z,7.07
2023-04-06T07:16:32.355Z,7.23
2023-04-06T07:19:00.984Z,7.55
2023-04-06T07:21:29.552Z,8.24
2023-04-06T07:23:58.117Z,8.96
2023-04-06T07:26:26.412Z,9.66
2023-04-06T07:28:54.907Z,10.09
2023-04-06T07:31:25.016Z,10.72
2023-04-06T07:33:55.766Z,10.84
2023-04-06T07:36:24.195Z,10.70
2023-04-06T07:38:52.595Z,10.56
2023-04-06T07:41:20.983Z,10.53
2023-04-06T07:43:49.769Z,10.72
2023-04-06T07:46:18.333Z,10.98
2023-04-06T07:48:47.460Z,11.18
2023-04-06T07:51:18.589Z,10.78
2023-04-06T07:53:47.957Z,10.70
2023-04-06T07:56:16.658Z,10.96
2023-04-06T07:58:44.936Z,10.52
2023-04-06T08:01:12.972Z,10.43
2023-04-06T08:03:41.581Z,10.40
2023-04-06T08:06:09.740Z,10.35
2023-04-06T08:08:39.436Z,10.66
2023-04-06T08:11:07.995Z,10.60
2023-04-06T08:13:36.433Z,10.62
2023-04-06T08:16:04.672Z,10.64
2023-04-06T08:18:32.841Z,10.85
2023-04-06T08:21:01.170Z,10.96
2023-04-06T08:23:29.254Z,11.58
2023-04-06T08:25:58.735Z,12.19
2023-04-06T08:28:27.197Z,13.06
2023-04-06T08:30:55.325Z,13.58
2023-04-06T08:33:23.479Z,13.85
2023-04-06T08:35:51.941Z,13.63
2023-04-06T08:38:20.170Z,13.80
2023-04-06T08:40:50.809Z,13.19
2023-04-06T08:43:23.620Z,13.19
2023-04-06T08:45:51.861Z,13.63
2023-04-06T08:48:20.345Z,13.69
2023-04-06T08:50:48.716Z,13.94
2023-04-06T08:53:18.073Z,13.70
2023-04-06T08:55:46.326Z,14.17
2023-04-06T08:58:24.309Z,13.89
2023-04-06T09:01:02.235Z,13.60
2023-04-06T09:03:31.058Z,13.66
2023-04-06T09:05:59.306Z,12.86
2023-04-06T09:08:27.470Z,12.70
2023-04-06T09:10:55.731Z,12.21
2023-04-06T09:13:24.190Z,12.32
2023-04-06T09:16:02.485Z,13.26
2023-04-06T09:18:31.472Z,14.24
2023-04-06T09:21:00.760Z,14.81
2023-04-06T09:23:29.322Z,14.29
2023-04-06T09:26:11.781Z,14.11
2023-04-06T09:28:46.907Z,14.26
2023-04-06T09:31:17.538Z,14.30
2023-04-06T09:33:47.340Z,14.17
2023-04-06T09:36:16.832Z,14.62
2023-04-06T09:38:55.590Z,14.68
2023-04-06T09:41:24.598Z,14.54
2023-04-06T09:43:52.984Z,14.00
2023-04-06T09:46:23.603Z,14.19
2023-04-06T09:48:52.344Z,14.65
2023-04-06T09:51:21.034Z,15.16
2023-04-06T09:53:53.357Z,15.69
2023-04-06T09:56:26.185Z,15.42
2023-04-06T09:58:57.348Z,14.99
2023-04-06T10:01:28.827Z,14.79
2023-04-06T10:03:59.811Z,15.42
2023-04-06T10:06:29.599Z,15.65
2023-04-06T10:08:59.018Z,16.46
2023-04-06T10:11:27.628Z,17.25
2023-04-06T10:13:57.445Z,17.88
2023-04-06T10:16:29.033Z,18.16
2023-04-06T10:19:01.290Z,18.92
2023-04-06T10:21:31.834Z,18.57
2023-04-06T10:24:01.204Z,17.91
2023-04-06T10:26:29.294Z,17.97
2023-04-06T10:28:57.345Z,17.68
2023-04-06T10:31:30.577Z,17.71
2023-04-06T10:33:59.171Z,18.36
2023-04-06T10:36:27.956Z,18.68
2023-04-06T10:38:57.048Z,18.97
2023-04-06T10:41:25.314Z,18.99
2023-04-06T10:43:57.642Z,18.70
2023-04-06T10:46:31.683Z,18.97
2023-04-06T10:49:01.295Z,19.03
2023-04-06T10:51:30.784Z,19.10
2023-04-06T10:53:59.057Z,19.23
2023-04-06T10:56:29.127Z,19.48
2023-04-06T10:58:58.211Z,19.43
2023-04-06T11:01:27.861Z,19.96
2023-04-06T11:04:00.342Z,19.81
2023-04-06T11:06:31.909Z,19.46
2023-04-06T11:09:00.696Z,18.34
2023-04-06T11:11:32.780Z,18.14
2023-04-06T11:14:04.414Z,17.68
2023-04-06T11:16:34.883Z,17.98
2023-04-06T11:19:07.131Z,18.23
2023-04-06T11:21:41.698Z,18.25
2023-04-06T11:24:15.595Z,18.25
2023-04-06T11:26:51.345Z,17.70
2023-04-06T11:29:25.918Z,17.72
2023-04-06T11:31:56.843Z,17.16
2023-04-06T11:34:30.472Z,16.98
2023-04-06T11:37:02.805Z,17.25
2023-04-06T11:39:33.225Z,17.66
2023-04-06T11:42:04.126Z,18.33
2023-04-06T11:44:37.037Z,18.82
2023-04-06T11:47:07.685Z,18.42
2023-04-06T11:49:41.228Z,18.45
2023-04-06T11:52:20.551Z,18.51
2023-04-06T11:54:52.726Z,18.12
2023-04-06T11:57:27.909Z,17.51
2023-04-06T12:00:01.282Z,17.82
2023-04-06T12:02:36.497Z,17.51
2023-04-06T12:05:11.905Z,16.85
2023-04-06T12:10:18.620Z,17.20
2023-04-06T12:12:51.039Z,16.52
2023-04-06T12:15:20.140Z,17.15
2023-04-06T12:17:48.393Z,17.74
2023-04-06T12:20:26.966Z,18.36
2023-04-06T12:22:59.785Z,18.62
2023-04-06T12:25:30.581Z,18.16
2023-04-06T12:28:04.661Z,17.14
2023-04-06T12:30:39.743Z,16.89
2023-04-06T12:33:08.280Z,16.77
2023-04-06T12:35:41.071Z,17.05
2023-04-06T12:38:09.546Z,16.97
2023-04-06T12:40:42.217Z,17.25
2023-04-06T12:43:12.833Z,17.72
2023-04-06T12:45:43.308Z,18.06
2023-04-06T12:48:11.710Z,18.03
2023-04-06T12:50:43.239Z,18.38
2023-04-06T12:53:12.439Z,18.02
2023-04-06T12:55:44.890Z,18.17
2023-04-06T12:58:18.231Z,18.41
2023-04-06T13:00:47.920Z,18.54
2023-04-06T13:03:21.267Z,18.44
2023-04-06T13:05:52.898Z,18.46
2023-04-06T13:08:22.092Z,18.23
2023-04-06T13:10:56.007Z,17.55
2023-04-06T13:13:25.966Z,17.88
2023-04-06T13:15:56.502Z,17.92
2023-04-06T13:18:25.805Z,17.95
2023-04-06T13:21:01.856Z,18.19
2023-04-06T13:23:33.837Z,18.52
2023-04-06T13:26:09.781Z,18.51
2023-04-06T13:28:41.481Z,18.72
2023-04-06T13:31:14.992Z,18.80
2023-04-06T13:33:47.635Z,18.63
2023-04-06T13:36:18.755Z,17.51
2023-04-06T13:38:51.405Z,17.15
2023-04-06T13:41:25.721Z,16.50
2023-04-06T13:43:54.345Z,16.78
2023-04-06T13:46:25.029Z,16.57
2023-04-06T13:48:59.565Z,16.58
2023-04-06T13:51:33.222Z,16.54
2023-04-06T13:54:02.695Z,16.51
2023-04-06T13:56:32.842Z,16.55
2023-04-06T13:59:02.258Z,16.51
2023-04-06T14:01:34.275Z,16.79
2023-04-06T14:04:06.026Z,17.05
2023-04-06T14:06:39.685Z,16.93
2023-04-06T14:09:08.105Z,17.00
2023-04-06T14:11:40.422Z,17.19
2023-04-06T14:14:14.036Z,17.20
2023-04-06T14:16:47.766Z,17.28
2023-04-06T14:19:22.243Z,17.78
2023-04-06T14:21:57.117Z,17.34
2023-04-06T14:24:27.576Z,17.51
2023-04-06T14:27:00.020Z,17.15
2023-04-06T14:29:34.076Z,16.97
2023-04-06T14:32:05.484Z,16.81
2023-04-06T14:34:35.940Z,16.71
2023-04-06T14:37:07.550Z,16.28
2023-04-06T14:39:38.328Z,16.29
2023-04-06T14:42:07.010Z,16.40
2023-04-06T14:44:44.996Z,15.93
2023-04-06T14:47:17.098Z,15.86
2023-04-06T14:49:49.751Z,16.08
2023-04-06T14:52:23.585Z,15.68
2023-04-06T14:54:54.163Z,15.46
2023-04-06T14:57:26.251Z,15.44
2023-04-06T14:59:58.621Z,15.22
2023-04-06T15:02:28.623Z,14.92
2023-04-06T15:05:00.186Z,14.76
2023-04-06T15:07:31.082Z,14.62
2023-04-06T15:10:03.221Z,14.67
2023-04-06T15:12:36.765Z,14.55
2023-04-06T15:15:06.893Z,14.64
2023-04-06T15:17:35.265Z,14.86
2023-04-06T15:20:05.722Z,14.98
2023-04-06T15:22:38.731Z,15.22
2023-04-06T15:25:08.504Z,15.16
2023-04-06T15:27:38.508Z,15.02
2023-04-06T15:30:08.866Z,15.35
2023-04-06T15:32:37.025Z,15.28
2023-04-06T15:35:11.084Z,15.34
2023-04-06T15:37:40.728Z,15.49
2023-04-06T15:40:10.652Z,15.36
2023-04-06T15:42:45.403Z,15.49
2023-04-06T15:45:14.214Z,15.44
2023-04-06T15:47:44.234Z,15.63
2023-04-06T15:50:15.210Z,15.50
2023-04-06T15:52:47.084Z,15.52
2023-04-06T15:55:18.071Z,15.73
2023-04-06T15:57:46.802Z,15.54
2023-04-06T16:00:20.867Z,15.78
2023-04-06T16:02:52.140Z,15.87
2023-04-06T16:05:28.564Z,16.05
2023-04-06T16:08:01.409Z,15.96
2023-04-06T16:10:29.655Z,16.17
2023-04-06T16:13:01.410Z,16.18
2023-04-06T16:15:36.769Z,16.31
2023-04-06T16:18:07.433Z,16.35
2023-04-06T16:20:36.778Z,16.11
2023-04-06T16:23:08.428Z,16.10
2023-04-06T16:25:36.890Z,15.77
2023-04-06T16:28:05.124Z,15.65
2023-04-06T16:30:37.318Z,15.43
2023-04-06T16:33:09.415Z,15.25
2023-04-06T16:35:37.956Z,14.72
2023-04-06T16:38:08.928Z,14.74
2023-04-06T16:40:37.628Z,14.65
2023-04-06T16:43:09.077Z,14.28
2023-04-06T16:45:41.622Z,14.32
2023-04-06T16:48:14.626Z,14.26
2023-04-06T16:50:47.117Z,14.14
2023-04-06T16:53:18.750Z,14.13
2023-04-06T16:55:50.183Z,14.10
2023-04-06T16:58:18.900Z,14.11
2023-04-06T17:00:48.595Z,13.74
2023-04-06T17:03:19.518Z,13.82
2023-04-06T17:05:48.041Z,13.70
2023-04-06T17:08:16.609Z,13.83
2023-04-06T17:10:59.104Z,13.54
2023-04-06T17:13:30.952Z,13.70
2023-04-06T17:15:59.209Z,13.70
2023-04-06T17:18:27.566Z,13.41
2023-04-06T17:20:55.771Z,13.51
2023-04-06T17:23:24.313Z,13.50
2023-04-06T17:25:57.403Z,13.39
2023-04-06T17:28:26.239Z,13.37
2023-04-06T17:30:56.090Z,13.42
2023-04-06T17:33:29.801Z,13.42
2023-04-06T17:35:59.715Z,13.40
2023-04-06T17:38:27.826Z,13.41
2023-04-06T17:41:02.978Z,13.29
2023-04-06T17:43:34.969Z,13.27
2023-04-06T17:46:07.674Z,13.20
2023-04-06T17:48:40.763Z,13.16
2023-04-06T17:51:10.747Z,13.14
2023-04-06T17:53:39.332Z,13.05
2023-04-06T17:56:09.076Z,12.90
2023-04-06T17:58:37.193Z,12.92
2023-04-06T18:01:07.814Z,12.93
2023-04-06T18:03:38.434Z,12.91
2023-04-06T18:06:14.191Z,12.88
2023-04-06T18:08:42.873Z,12.91
2023-04-06T18:11:18.719Z,12.69
2023-04-06T18:13:47.366Z,12.77
2023-04-06T18:16:17.263Z,12.59
2023-04-06T18:18:45.957Z,12.66
2023-04-06T18:21:17.455Z,12.58
2023-04-06T18:23:52.390Z,12.49
2023-04-06T18:26:28.948Z,12.44
2023-04-06T18:29:02.438Z,12.31
2023-04-06T18:34:10.058Z,11.91
2023-04-06T18:36:38.826Z,11.88
2023-04-06T18:39:10.306Z,11.68
2023-04-06T18:41:43.746Z,11.59
2023-04-06T18:44:14.464Z,11.44
2023-04-06T18:46:44.720Z,11.42
2023-04-06T18:49:13.054Z,11.28
2023-04-06T18:51:43.111Z,11.17
2023-04-06T18:54:11.265Z,11.01
2023-04-06T18:56:42.188Z,11.02
2023-04-06T18:59:10.856Z,10.88
2023-04-06T19:01:43.784Z,10.87
2023-04-06T19:04:13.292Z,10.82
2023-04-06T19:06:46.853Z,10.77
2023-04-06T19:09:20.600Z,10.65
2023-04-06T19:11:53.394Z,10.57
2023-04-06T19:14:25.862Z,10.46
2023-04-06T19:16:55.432Z,10.37
2023-04-06T19:19:27.882Z,10.25
2023-04-06T19:22:02.238Z,10.12
2023-04-06T19:24:34.599Z,9.93
2023-04-06T19:27:08.282Z,9.70
2023-04-06T19:29:38.972Z,9.52
2023-04-06T19:32:12.017Z,9.32
2023-04-06T19:34:41.906Z,9.10
2023-04-06T19:37:10.978Z,8.89
2023-04-06T19:39:41.477Z,8.72
2023-04-06T19:42:17.659Z,8.56
2023-04-06T19:44:48.607Z,8.43
2023-04-06T19:47:19.088Z,8.31
2023-04-06T19:49:48.701Z,8.30
2023-04-06T19:52:17.951Z,8.28
2023-04-06T19:54:50.325Z,8.26
2023-04-06T19:57:24.205Z,8.24
2023-04-06T19:59:52.954Z,8.22
2023-04-06T20:02:21.492Z,8.32
2023-04-06T20:04:50.412Z,8.38
2023-04-06T20:07:18.586Z,8.42
2023-04-06T20:09:47.050Z,8.43
2023-04-06T20:12:15.161Z,8.44
2023-04-06T20:14:44.738Z,8.46
2023-04-06T20:17:13.161Z,8.48
2023-04-06T20:19:41.692Z,8.45
2023-04-06T20:22:10.875Z,8.46
2023-04-06T20:24:40.459Z,8.50
2023-04-06T20:27:14.048Z,8.45
2023-04-06T20:29:50.761Z,8.44
2023-04-06T20:32:26.302Z,8.41
2023-04-06T20:35:00.299Z,8.38
2023-04-06T20:37:32.096Z,8.38
2023-04-06T20:40:01.725Z,8.37
2023-04-06T20:42:30.048Z,8.33
2023-04-06T20:45:01.779Z,8.30
2023-04-06T20:47:30.585Z,8.22
2023-04-06T20:49:58.916Z,8.16
2023-04-06T20:52:27.752Z,8.09
2023-04-06T20:54:56.530Z,8.00
2023-04-06T20:57:25.522Z,7.82
2023-04-06T20:59:53.885Z,7.76
2023-04-06T21:02:28.372Z,7.61
2023-04-06T21:05:02.043Z,7.49
2023-04-06T21:07:35.559Z,7.36
2023-04-06T21:10:05.332Z,7.19
2023-04-06T21:12:33.776Z,6.97
2023-04-06T21:15:02.459Z,6.85
2023-04-06T21:17:34.790Z,6.58
2023-04-06T21:20:07.169Z,6.53
2023-04-06T21:22:36.510Z,6.39
2023-04-06T21:25:09.202Z,6.27
2023-04-06T21:27:40.740Z,6.12
2023-04-06T21:30:11.136Z,6.00
2023-04-06T21:32:42.206Z,5.89
2023-04-06T21:35:13.603Z,5.78
2023-04-06T21:37:43.030Z,5.66
2023-04-06T21:40:12.424Z,5.51
2023-04-06T21:42:41.953Z,5.41
2023-04-06T21:45:10.403Z,5.30
2023-04-06T21:47:39.169Z,5.18
2023-04-06T21:50:09.937Z,5.08
2023-04-06T21:52:38.024Z,5.01
2023-04-06T21:55:08.150Z,4.80
2023-04-06T21:57:37.368Z,4.82
2023-04-06T22:00:09.912Z,4.72
2023-04-06T22:02:44.622Z,4.57
2023-04-06T22:05:14.867Z,4.49
2023-04-06T22:07:43.072Z,4.47
2023-04-06T22:10:11.821Z,4.42
2023-04-06T22:12:40.043Z,4.40
2023-04-06T22:15:08.973Z,4.36
2023-04-06T22:17:37.789Z,4.31
2023-04-06T22:20:06.632Z,4.29
2023-04-06T22:22:36.786Z,4.28
2023-04-06T22:25:05.640Z,4.24
2023-04-06T22:27:34.074Z,4.15
2023-04-06T22:30:02.610Z,4.07
2023-04-06T22:32:30.995Z,4.02
2023-04-06T22:35:00.020Z,3.97
2023-04-06T22:37:28.054Z,3.94
2023-04-06T22:39:58.185Z,3.87
2023-04-06T22:42:27.864Z,3.73
2023-04-06T22:44:56.326Z,3.68
2023-04-06T22:47:24.898Z,3.67
2023-04-06T22:49:53.055Z,3.63
2023-04-06T22:52:21.374Z,3.57
2023-04-06T22:54:49.461Z,3.53
2023-04-06T22:57:18.839Z,3.48
2023-04-06T22:59:46.922Z,3.43
2023-04-06T23:02:16.798Z,3.39
2023-04-06T23:04:46.179Z,3.37
2023-04-06T23:07:15.557Z,3.29
2023-04-06T23:09:44.412Z,3.20
2023-04-06T23:12:12.599Z,3.13
2023-04-06T23:14:42.413Z,3.09
2023-04-06T23:17:10.824Z,3.04
2023-04-06T23:19:40.044Z,3.01
2023-04-06T23:22:08.550Z,2.97
2023-04-06T23:24:36.830Z,2.90
2023-04-06T23:27:06.212Z,2.85
2023-04-06T23:29:34.262Z,2.82
2023-04-06T23:32:03.824Z,2.81
2023-04-06T23:34:32.555Z,2.80
2023-04-06T23:37:03.178Z,2.78
2023-04-06T23:39:31.557Z,2.78
2023-04-06T23:41:59.583Z,2.75
2023-04-06T23:44:30.888Z,2.72
2023-04-06T23:46:59.170Z,2.71
2023-04-06T23:49:28.694Z,2.69
2023-04-06T23:51:56.835Z,2.66
2023-04-06T23:54:25.131Z,2.61
2023-04-06T23:56:53.481Z,2.59
2023-04-06T23:59:21.897Z,2.57
